sensor_id;sensor_type;location;lat;lon;timestamp;pressure;altitude;pressure_sealevel;temperature;humidity
49341;BME280;35209;51.050;13.678;2023-04-05T00:01:08;100732.28;;;2.66;55.40
49341;BME280;35209;51.050;13.678;2023-04-05T00:06:12;100726.28;;;2.73;56.36
49341;BME280;35209;51.050;13.678;2023-04-05T00:11:17;100721.75;;;2.52;57.28
49341;BME280;35209;51.050;13.678;2023-04-05T00:16:19;100721.00;;;2.64;57.44
49341;BME280;35209;51.050;13.678;2023-04-05T00:21:22;100717.53;;;2.64;57.77
49341;BME280;35209;51.050;13.678;2023-04-05T00:26:24;100710.31;;;2.37;58.42
49341;BME280;35209;51.050;13.678;2023-04-05T00:31:30;100711.06;;;2.28;58.88
49341;BME280;35209;51.050;13.678;2023-04-05T00:36:32;100699.91;;;2.37;58.84
49341;BME280;35209;51.050;13.678;2023-04-05T00:41:33;100692.50;;;2.67;57.67
49341;BME280;35209;51.050;13.678;2023-04-05T00:46:36;100697.44;;;2.46;60.32
49341;BME280;35209;51.050;13.678;2023-04-05T00:51:38;100697.44;;;2.47;57.92
49341;BME280;35209;51.050;13.678;2023-04-05T00:56:40;100694.78;;;2.41;57.94
49341;BME280;35209;51.050;13.678;2023-04-05T01:01:42;100688.47;;;2.21;59.27
49341;BME280;35209;51.050;13.678;2023-04-05T01:06:57;100694.47;;;2.17;59.57
49341;BME280;35209;51.050;13.678;2023-04-05T01:12:04;100688.25;;;2.75;59.51
49341;BME280;35209;51.050;13.678;2023-04-05T01:17:08;100681.97;;;2.53;59.49
49341;BME280;35209;51.050;13.678;2023-04-05T01:38:02;100671.34;;;2.32;59.43
49341;BME280;35209;51.050;13.678;2023-04-05T01:43:14;100669.56;;;2.30;59.75
49341;BME280;35209;51.050;13.678;2023-04-05T01:48:16;100666.03;;;2.23;59.88
49341;BME280;35209;51.050;13.678;2023-04-05T01:53:18;100668.75;;;2.34;60.05
49341;BME280;35209;51.050;13.678;2023-04-05T01:58:20;100658.47;;;2.41;60.60
49341;BME280;35209;51.050;13.678;2023-04-05T02:03:22;100653.72;;;2.07;62.31
49341;BME280;35209;51.050;13.678;2023-04-05T02:08:26;100651.94;;;2.02;61.93
49341;BME280;35209;51.050;13.678;2023-04-05T02:13:28;100662.47;;;2.15;62.74
49341;BME280;35209;51.050;13.678;2023-04-05T02:18:30;100657.22;;;2.10;62.54
49341;BME280;35209;51.050;13.678;2023-04-05T02:23:33;100660.56;;;2.01;64.14
49341;BME280;35209;51.050;13.678;2023-04-05T02:28:35;100656.53;;;2.25;61.29
49341;BME280;35209;51.050;13.678;2023-04-05T02:33:38;100649.59;;;2.22;61.62
49341;BME280;35209;51.050;13.678;2023-04-05T02:38:40;100652.78;;;2.01;62.32
49341;BME280;35209;51.050;13.678;2023-04-05T02:43:41;100653.81;;;2.14;63.49
49341;BME280;35209;51.050;13.678;2023-04-05T02:48:44;100652.03;;;2.09;63.98
49341;BME280;35209;51.050;13.678;2023-04-05T02:53:48;100649.34;;;2.01;64.23
49341;BME280;35209;51.050;13.678;2023-04-05T02:58:50;100644.84;;;1.89;65.41
49341;BME280;35209;51.050;13.678;2023-04-05T03:03:57;100645.69;;;1.87;65.03
49341;BME280;35209;51.050;13.678;2023-04-05T03:08:59;100638.00;;;1.93;64.27
49341;BME280;35209;51.050;13.678;2023-04-05T03:14:02;100645.19;;;2.17;64.85
49341;BME280;35209;51.050;13.678;2023-04-05T03:19:10;100639.81;;;2.01;66.55
49341;BME280;35209;51.050;13.678;2023-04-05T03:24:16;100638.63;;;1.76;68.94
49341;BME280;35209;51.050;13.678;2023-04-05T03:29:18;100627.44;;;1.79;68.47
49341;BME280;35209;51.050;13.678;2023-04-05T03:34:21;100626.63;;;1.83;68.13
49341;BME280;35209;51.050;13.678;2023-04-05T03:39:24;100632.69;;;1.82;67.98
49341;BME280;35209;51.050;13.678;2023-04-05T03:44:26;100628.44;;;1.89;67.40
49341;BME280;35209;51.050;13.678;2023-04-05T03:49:28;100623.25;;;1.89;67.64
49341;BME280;35209;51.050;13.678;2023-04-05T03:54:29;100632.50;;;2.41;64.43
49341;BME280;35209;51.050;13.678;2023-04-05T03:59:34;100631.19;;;1.99;65.97
49341;BME280;35209;51.050;13.678;2023-04-05T04:04:38;100630.03;;;1.81;66.14
49341;BME280;35209;51.050;13.678;2023-04-05T04:09:40;100636.16;;;1.84;66.30
49341;BME280;35209;51.050;13.678;2023-04-05T04:14:44;100636.06;;;1.78;66.41
49341;BME280;35209;51.050;13.678;2023-04-05T04:20:04;100634.41;;;1.85;65.99
49341;BME280;35209;51.050;13.678;2023-04-05T04:25:44;100631.88;;;1.89;65.90
49341;BME280;35209;51.050;13.678;2023-04-05T04:31:19;100640.81;;;2.10;65.34
49341;BME280;35209;51.050;13.678;2023-04-05T04:36:31;100640.97;;;2.22;64.51
49341;BME280;35209;51.050;13.678;2023-04-05T04:41:52;100634.47;;;1.89;66.23
49341;BME280;35209;51.050;13.678;2023-04-05T04:47:18;100633.53;;;1.83;66.58
49341;BME280;35209;51.050;13.678;2023-04-05T04:52:39;100637.13;;;1.92;66.96
49341;BME280;35209;51.050;13.678;2023-04-05T04:57:41;100634.41;;;1.83;66.77
49341;BME280;35209;51.050;13.678;2023-04-05T05:02:43;100634.59;;;1.98;65.69
49341;BME280;35209;51.050;13.678;2023-04-05T05:07:48;100636.84;;;2.42;62.20
49341;BME280;35209;51.050;13.678;2023-04-05T05:12:51;100633.44;;;2.46;61.87
49341;BME280;35209;51.050;13.678;2023-04-05T05:17:53;100638.38;;;2.25;62.29
49341;BME280;35209;51.050;13.678;2023-04-05T05:22:59;100632.97;;;2.05;63.39
49341;BME280;35209;51.050;13.678;2023-04-05T05:28:06;100638.75;;;1.84;65.17
49341;BME280;35209;51.050;13.678;2023-04-05T05:33:07;100631.56;;;2.33;61.61
49341;BME280;35209;51.050;13.678;2023-04-05T05:38:09;100632.84;;;1.96;63.55
49341;BME280;35209;51.050;13.678;2023-04-05T05:43:14;100635.06;;;2.35;61.59
49341;BME280;35209;51.050;13.678;2023-04-05T05:48:16;100636.22;;;2.63;60.32
49341;BME280;35209;51.050;13.678;2023-04-05T05:53:18;100634.25;;;2.41;61.52
49341;BME280;35209;51.050;13.678;2023-04-05T05:58:20;100635.66;;;2.13;62.06
49341;BME280;35209;51.050;13.678;2023-04-05T06:03:22;100618.69;;;2.42;60.91
49341;BME280;35209;51.050;13.678;2023-04-05T06:08:25;100626.53;;;3.53;56.87
49341;BME280;35209;51.050;13.678;2023-04-05T06:13:30;100632.97;;;4.23;54.29
49341;BME280;35209;51.050;13.678;2023-04-05T06:18:32;100633.63;;;3.80;53.46
49341;BME280;35209;51.050;13.678;2023-04-05T06:23:33;100637.16;;;3.87;54.01
49341;BME280;35209;51.050;13.678;2023-04-05T06:28:35;100632.22;;;4.82;51.58
49341;BME280;35209;51.050;13.678;2023-04-05T06:33:37;100630.47;;;4.78;50.82
49341;BME280;35209;51.050;13.678;2023-04-05T06:38:39;100629.63;;;4.82;51.89
49341;BME280;35209;51.050;13.678;2023-04-05T06:43:42;100623.56;;;4.83;51.85
49341;BME280;35209;51.050;13.678;2023-04-05T06:48:44;100619.22;;;4.74;52.75
49341;BME280;35209;51.050;13.678;2023-04-05T06:53:48;100629.63;;;4.73;52.90
49341;BME280;35209;51.050;13.678;2023-04-05T06:58:50;100626.13;;;4.62;53.71
49341;BME280;35209;51.050;13.678;2023-04-05T07:03:53;100624.41;;;4.62;54.01
49341;BME280;35209;51.050;13.678;2023-04-05T07:08:56;100624.41;;;4.61;53.86
49341;BME280;35209;51.050;13.678;2023-04-05T07:13:59;100620.91;;;4.65;54.19
49341;BME280;35209;51.050;13.678;2023-04-05T07:19:01;100620.06;;;4.67;54.61
49341;BME280;35209;51.050;13.678;2023-04-05T07:24:03;100616.63;;;4.84;54.14
49341;BME280;35209;51.050;13.678;2023-04-05T07:29:06;100610.53;;;4.74;55.44
49341;BME280;35209;51.050;13.678;2023-04-05T07:34:09;100609.66;;;5.09;54.65
49341;BME280;35209;51.050;13.678;2023-04-05T07:39:10;100613.13;;;4.57;54.76
49341;BME280;35209;51.050;13.678;2023-04-05T07:44:12;100618.34;;;4.69;54.94
49341;BME280;35209;51.050;13.678;2023-04-05T07:49:14;100617.47;;;4.70;55.89
49341;BME280;35209;51.050;13.678;2023-04-05T07:54:16;100607.94;;;5.07;54.26
49341;BME280;35209;51.050;13.678;2023-04-05T07:59:18;100614.88;;;5.21;54.23
49341;BME280;35209;51.050;13.678;2023-04-05T08:04:20;100613.97;;;5.43;53.75
49341;BME280;35209;51.050;13.678;2023-04-05T08:09:22;100608.66;;;5.83;53.91
49341;BME280;35209;51.050;13.678;2023-04-05T08:14:24;100607.66;;;6.30;50.48
49341;BME280;35209;51.050;13.678;2023-04-05T08:19:26;100612.16;;;5.79;50.17
49341;BME280;35209;51.050;13.678;2023-04-05T08:24:28;100605.97;;;6.14;49.08
49341;BME280;35209;51.050;13.678;2023-04-05T08:29:29;100599.75;;;6.39;48.89
49341;BME280;35209;51.050;13.678;2023-04-05T08:34:31;100595.81;;;7.04;46.52
49341;BME280;35209;51.050;13.678;2023-04-05T08:39:34;100591.66;;;6.79;44.71
49341;BME280;35209;51.050;13.678;2023-04-05T08:44:36;100602.41;;;6.33;44.84
49341;BME280;35209;51.050;13.678;2023-04-05T08:49:43;100595.25;;;6.64;45.09
49341;BME280;35209;51.050;13.678;2023-04-05T08:54:45;100597.72;;;6.81;45.29
49341;BME280;35209;51.050;13.678;2023-04-05T08:59:48;100603.59;;;7.11;44.98
49341;BME280;35209;51.050;13.678;2023-04-05T09:04:51;100589.31;;;7.47;42.57
49341;BME280;35209;51.050;13.678;2023-04-05T09:09:54;100599.59;;;7.65;45.12
49341;BME280;35209;51.050;13.678;2023-04-05T09:15:00;100592.41;;;7.82;41.67
49341;BME280;35209;51.050;13.678;2023-04-05T09:20:02;100591.03;;;8.25;42.69
49341;BME280;35209;51.050;13.678;2023-04-05T09:25:04;100596.50;;;7.25;41.16
49341;BME280;35209;51.050;13.678;2023-04-05T09:30:20;100590.56;;;7.06;41.83
49341;BME280;35209;51.050;13.678;2023-04-05T09:35:24;100593.94;;;7.19;41.53
49341;BME280;35209;51.050;13.678;2023-04-05T09:40:44;100592.56;;;6.72;41.97
49341;BME280;35209;51.050;13.678;2023-04-05T09:45:52;100582.84;;;6.95;43.37
49341;BME280;35209;51.050;13.678;2023-04-05T09:51:03;100587.25;;;6.84;45.67
49341;BME280;35209;51.050;13.678;2023-04-05T09:56:13;100587.41;;;6.63;44.14
49341;BME280;35209;51.050;13.678;2023-04-05T10:01:15;100582.19;;;6.64;45.41
49341;BME280;35209;51.050;13.678;2023-04-05T10:06:18;100589.31;;;6.42;45.47
49341;BME280;35209;51.050;13.678;2023-04-05T10:11:20;100582.47;;;6.15;45.71
49341;BME280;35209;51.050;13.678;2023-04-05T10:16:25;100578.75;;;6.54;44.21
49341;BME280;35209;51.050;13.678;2023-04-05T10:21:29;100575.22;;;6.66;43.79
49341;BME280;35209;51.050;13.678;2023-04-05T10:26:50;100577.59;;;6.95;42.17
49341;BME280;35209;51.050;13.678;2023-04-05T10:32:23;100578.50;;;6.91;42.75
49341;BME280;35209;51.050;13.678;2023-04-05T10:37:38;100557.63;;;6.85;43.46
49341;BME280;35209;51.050;13.678;2023-04-05T10:42:42;100556.53;;;7.14;43.72
49341;BME280;35209;51.050;13.678;2023-04-05T10:47:58;100551.34;;;7.89;43.05
49341;BME280;35209;51.050;13.678;2023-04-05T10:53:00;100550.75;;;8.32;41.50
49341;BME280;35209;51.050;13.678;2023-04-05T10:58:04;100549.69;;;7.80;41.05
49341;BME280;35209;51.050;13.678;2023-04-05T11:03:06;100549.63;;;7.87;42.06
49341;BME280;35209;51.050;13.678;2023-04-05T11:08:10;100552.63;;;7.54;42.32
49341;BME280;35209;51.050;13.678;2023-04-05T11:13:13;100554.59;;;7.32;40.21
49341;BME280;35209;51.050;13.678;2023-04-05T11:23:18;100549.00;;;7.65;40.43
49341;BME280;35209;51.050;13.678;2023-04-05T11:28:30;100537.34;;;7.92;39.43
49341;BME280;35209;51.050;13.678;2023-04-05T11:33:54;100534.59;;;8.01;39.83
49341;BME280;35209;51.050;13.678;2023-04-05T11:44:23;100533.09;;;7.81;41.92
49341;BME280;35209;51.050;13.678;2023-04-05T11:49:25;100532.44;;;7.64;40.41
49341;BME280;35209;51.050;13.678;2023-04-05T11:54:31;100537.63;;;7.69;40.40
49341;BME280;35209;51.050;13.678;2023-04-05T11:59:34;100539.66;;;7.42;42.41
49341;BME280;35209;51.050;13.678;2023-04-05T12:04:37;100543.38;;;7.20;44.12
49341;BME280;35209;51.050;13.678;2023-04-05T12:10:05;100542.31;;;6.39;46.26
49341;BME280;35209;51.050;13.678;2023-04-05T12:15:14;100538.78;;;6.45;47.59
49341;BME280;35209;51.050;13.678;2023-04-05T12:20:21;100536.81;;;6.73;45.34
49341;BME280;35209;51.050;13.678;2023-04-05T12:25:25;100534.34;;;6.61;45.07
49341;BME280;35209;51.050;13.678;2023-04-05T12:30:27;100518.84;;;6.38;47.11
49341;BME280;35209;51.050;13.678;2023-04-05T12:35:28;100525.66;;;6.54;47.57
49341;BME280;35209;51.050;13.678;2023-04-05T12:40:36;100519.50;;;6.64;45.49
49341;BME280;35209;51.050;13.678;2023-04-05T12:45:38;100511.53;;;6.79;45.67
49341;BME280;35209;51.050;13.678;2023-04-05T12:50:46;100505.06;;;7.16;44.24
49341;BME280;35209;51.050;13.678;2023-04-05T12:55:50;100506.00;;;7.12;43.88
49341;BME280;35209;51.050;13.678;2023-04-05T13:00:53;100499.09;;;7.03;44.95
49341;BME280;35209;51.050;13.678;2023-04-05T13:05:55;100497.91;;;7.33;41.86
49341;BME280;35209;51.050;13.678;2023-04-05T13:10:56;100499.06;;;7.84;41.81
49341;BME280;35209;51.050;13.678;2023-04-05T13:15:59;100490.91;;;8.06;41.03
49341;BME280;35209;51.050;13.678;2023-04-05T13:21:00;100477.91;;;7.98;43.45
49341;BME280;35209;51.050;13.678;2023-04-05T13:26:08;100479.75;;;8.52;41.74
49341;BME280;35209;51.050;13.678;2023-04-05T13:31:09;100483.69;;;8.22;40.49
49341;BME280;35209;51.050;13.678;2023-04-05T13:36:14;100468.00;;;8.20;41.29
49341;BME280;35209;51.050;13.678;2023-04-05T13:41:16;100465.59;;;8.64;40.17
49341;BME280;35209;51.050;13.678;2023-04-05T13:46:18;100458.75;;;8.55;40.10
49341;BME280;35209;51.050;13.678;2023-04-05T13:51:20;100469.63;;;8.29;41.00
49341;BME280;35209;51.050;13.678;2023-04-05T13:56:22;100471.44;;;7.62;44.07
49341;BME280;35209;51.050;13.678;2023-04-05T14:01:24;100480.94;;;6.92;48.76
49341;BME280;35209;51.050;13.678;2023-04-05T14:06:26;100478.13;;;6.07;51.36
49341;BME280;35209;51.050;13.678;2023-04-05T14:11:28;100491.22;;;5.97;51.58
49341;BME280;35209;51.050;13.678;2023-04-05T14:16:30;100472.88;;;6.12;50.38
49341;BME280;35209;51.050;13.678;2023-04-05T14:21:33;100465.88;;;6.20;47.15
49341;BME280;35209;51.050;13.678;2023-04-05T14:26:35;100457.00;;;6.40;46.03
49341;BME280;35209;51.050;13.678;2023-04-05T14:31:37;100457.69;;;6.65;42.94
49341;BME280;35209;51.050;13.678;2023-04-05T14:36:40;100456.09;;;6.47;44.16
49341;BME280;35209;51.050;13.678;2023-04-05T14:41:42;100455.28;;;6.39;42.48
49341;BME280;35209;51.050;13.678;2023-04-05T14:46:44;100441.28;;;6.46;45.59
49341;BME280;35209;51.050;13.678;2023-04-05T14:51:49;100449.97;;;6.49;46.02
49341;BME280;35209;51.050;13.678;2023-04-05T14:56:51;100447.19;;;6.66;44.62
49341;BME280;35209;51.050;13.678;2023-04-05T15:01:54;100441.03;;;6.75;44.05
49341;BME280;35209;51.050;13.678;2023-04-05T15:06:56;100442.72;;;6.79;43.85
49341;BME280;35209;51.050;13.678;2023-04-05T15:11:58;100435.53;;;6.99;44.13
49341;BME280;35209;51.050;13.678;2023-04-05T15:17:00;100431.00;;;7.15;43.13
49341;BME280;35209;51.050;13.678;2023-04-05T15:22:02;100423.13;;;7.17;43.22
49341;BME280;35209;51.050;13.678;2023-04-05T15:27:05;100419.69;;;7.15;43.77
49341;BME280;35209;51.050;13.678;2023-04-05T15:32:07;100410.91;;;7.20;45.44
49341;BME280;35209;51.050;13.678;2023-04-05T15:37:09;100411.88;;;7.12;45.88
49341;BME280;35209;51.050;13.678;2023-04-05T15:42:11;100411.69;;;7.28;44.13
49341;BME280;35209;51.050;13.678;2023-04-05T15:47:13;100411.72;;;7.25;44.88
49341;BME280;35209;51.050;13.678;2023-04-05T15:52:15;100416.44;;;7.65;42.92
49341;BME280;35209;51.050;13.678;2023-04-05T15:57:18;100419.44;;;7.36;44.87
49341;BME280;35209;51.050;13.678;2023-04-05T16:02:21;100423.59;;;7.51;43.51
49341;BME280;35209;51.050;13.678;2023-04-05T16:07:23;100419.84;;;7.04;44.22
49341;BME280;35209;51.050;13.678;2023-04-05T16:12:25;100418.56;;;7.37;43.41
49341;BME280;35209;51.050;13.678;2023-04-05T16:17:26;100418.69;;;7.25;42.20
49341;BME280;35209;51.050;13.678;2023-04-05T16:22:29;100418.25;;;6.88;43.98
49341;BME280;35209;51.050;13.678;2023-04-05T16:27:31;100420.88;;;6.88;44.25
49341;BME280;35209;51.050;13.678;2023-04-05T16:32:34;100422.84;;;6.66;45.58
49341;BME280;35209;51.050;13.678;2023-04-05T16:37:36;100421.84;;;6.76;45.46
49341;BME280;35209;51.050;13.678;2023-04-05T16:42:39;100424.38;;;6.85;44.34
49341;BME280;35209;51.050;13.678;2023-04-05T16:47:41;100425.41;;;6.67;44.05
49341;BME280;35209;51.050;13.678;2023-04-05T16:52:44;100424.69;;;6.53;44.20
49341;BME280;35209;51.050;13.678;2023-04-05T16:57:46;100427.13;;;6.71;42.56
49341;BME280;35209;51.050;13.678;2023-04-05T17:02:48;100420.16;;;6.72;43.71
49341;BME280;35209;51.050;13.678;2023-04-05T17:07:50;100426.25;;;6.71;43.91
49341;BME280;35209;51.050;13.678;2023-04-05T17:12:53;100429.72;;;6.73;43.08
49341;BME280;35209;51.050;13.678;2023-04-05T17:17:55;100429.28;;;6.25;44.47
49341;BME280;35209;51.050;13.678;2023-04-05T17:22:57;100431.03;;;6.24;44.49
49341;BME280;35209;51.050;13.678;2023-04-05T17:28:00;100432.09;;;5.88;45.32
49341;BME280;35209;51.050;13.678;2023-04-05T17:33:01;100441.75;;;5.80;45.70
49341;BME280;35209;51.050;13.678;2023-04-05T17:38:04;100430.53;;;5.63;45.86
49341;BME280;35209;51.050;13.678;2023-04-05T17:43:06;100441.91;;;5.46;47.15
49341;BME280;35209;51.050;13.678;2023-04-05T17:48:08;100443.59;;;5.49;46.85
49341;BME280;35209;51.050;13.678;2023-04-05T17:53:11;100446.88;;;5.91;45.45
49341;BME280;35209;51.050;13.678;2023-04-05T17:58:12;100446.28;;;5.37;48.14
49341;BME280;35209;51.050;13.678;2023-04-05T18:03:14;100452.41;;;5.17;48.74
49341;BME280;35209;51.050;13.678;2023-04-05T18:08:18;100462.06;;;4.89;49.03
49341;BME280;35209;51.050;13.678;2023-04-05T18:13:20;100468.13;;;4.94;48.97
49341;BME280;35209;51.050;13.678;2023-04-05T18:18:23;100469.84;;;5.14;50.44
49341;BME280;35209;51.050;13.678;2023-04-05T18:23:25;100464.63;;;5.07;50.42
49341;BME280;35209;51.050;13.678;2023-04-05T18:28:27;100485.47;;;4.95;50.78
49341;BME280;35209;51.050;13.678;2023-04-05T18:33:29;100475.06;;;4.97;50.69
49341;BME280;35209;51.050;13.678;2023-04-05T18:38:31;100484.59;;;5.04;50.44
49341;BME280;35209;51.050;13.678;2023-04-05T18:43:33;100495.88;;;5.12;50.87
49341;BME280;35209;51.050;13.678;2023-04-05T18:48:35;100495.03;;;5.02;52.31
49341;BME280;35209;51.050;13.678;2023-04-05T18:53:39;100494.19;;;4.88;52.54
49341;BME280;35209;51.050;13.678;2023-04-05T18:58:41;100495.94;;;4.74;52.88
49341;BME280;35209;51.050;13.678;2023-04-05T19:03:43;100492.47;;;4.79;52.82
49341;BME280;35209;51.050;13.678;2023-04-05T19:08:46;100490.75;;;4.74;52.84
49341;BME280;35209;51.050;13.678;2023-04-05T19:13:48;100492.47;;;4.83;53.37
49341;BME280;35209;51.050;13.678;2023-04-05T19:18:51;100494.19;;;4.82;53.14
49341;BME280;35209;51.050;13.678;2023-04-05T19:23:54;100502.00;;;4.80;54.03
49341;BME280;35209;51.050;13.678;2023-04-05T19:28:56;100510.69;;;4.92;53.94
49341;BME280;35209;51.050;13.678;2023-04-05T19:34:00;100507.22;;;4.74;54.98
49341;BME280;35209;51.050;13.678;2023-04-05T19:39:03;100504.63;;;4.67;56.00
49341;BME280;35209;51.050;13.678;2023-04-05T19:44:09;100500.28;;;4.64;55.71
49341;BME280;35209;51.050;13.678;2023-04-05T19:49:30;100506.38;;;4.57;56.51
49341;BME280;35209;51.050;13.678;2023-04-05T19:54:34;100503.75;;;4.66;56.09
49341;BME280;35209;51.050;13.678;2023-04-05T19:59:36;100503.72;;;4.37;57.81
49341;BME280;35209;51.050;13.678;2023-04-05T20:04:38;100506.31;;;4.20;58.76
49341;BME280;35209;51.050;13.678;2023-04-05T20:09:40;100504.59;;;4.27;58.63
49341;BME280;35209;51.050;13.678;2023-04-05T20:14:43;100498.50;;;4.25;59.67
49341;BME280;35209;51.050;13.678;2023-04-05T20:19:56;100495.03;;;4.11;59.99
49341;BME280;35209;51.050;13.678;2023-04-05T20:30:32;100493.31;;;4.55;58.37
49341;BME280;35209;51.050;13.678;2023-04-05T20:35:35;100490.72;;;4.49;59.14
49341;BME280;35209;51.050;13.678;2023-04-05T20:40:37;100490.72;;;4.45;59.98
49341;BME280;35209;51.050;13.678;2023-04-05T20:45:39;100484.63;;;4.29;60.62
49341;BME280;35209;51.050;13.678;2023-04-05T20:50:40;100476.81;;;4.24;61.27
49341;BME280;35209;51.050;13.678;2023-04-05T20:55:43;100475.09;;;4.22;60.79
49341;BME280;35209;51.050;13.678;2023-04-05T21:00:44;100474.19;;;3.97;61.90
49341;BME280;35209;51.050;13.678;2023-04-05T21:05:46;100467.22;;;3.84;62.20
49341;BME280;35209;51.050;13.678;2023-04-05T21:10:48;100468.16;;;4.04;61.62
49341;BME280;35209;51.050;13.678;2023-04-05T21:15:54;100469.00;;;4.09;61.79
49341;BME280;35209;51.050;13.678;2023-04-05T21:20:56;100470.66;;;3.69;63.47
49341;BME280;35209;51.050;13.678;2023-04-05T21:25:58;100465.38;;;3.53;64.55
49341;BME280;35209;51.050;13.678;2023-04-05T21:30:59;100469.59;;;3.27;66.16
49341;BME280;35209;51.050;13.678;2023-04-05T21:36:02;100463.47;;;3.13;66.07
49341;BME280;35209;51.050;13.678;2023-04-05T21:41:04;100461.66;;;3.01;66.71
49341;BME280;35209;51.050;13.678;2023-04-05T21:46:05;100459.91;;;2.92;66.82
49341;BME280;35209;51.050;13.678;2023-04-05T21:51:07;100456.38;;;2.81;67.28
49341;BME280;35209;51.050;13.678;2023-04-05T21:56:09;100447.66;;;2.71;66.75
49341;BME280;35209;51.050;13.678;2023-04-05T22:01:12;100452.00;;;2.72;66.68
49341;BME280;35209;51.050;13.678;2023-04-05T22:06:14;100449.38;;;2.68;66.75
49341;BME280;35209;51.050;13.678;2023-04-05T22:11:16;100445.03;;;2.67;67.21
49341;BME280;35209;51.050;13.678;2023-04-05T22:16:18;100446.72;;;2.63;69.00
49341;BME280;35209;51.050;13.678;2023-04-05T22:21:20;100442.38;;;2.59;70.16
49341;BME280;35209;51.050;13.678;2023-04-05T22:26:22;100440.75;;;2.70;69.42
49341;BME280;35209;51.050;13.678;2023-04-05T22:31:24;100441.31;;;2.33;70.64
49341;BME280;35209;51.050;13.678;2023-04-05T22:36:25;100439.66;;;2.42;71.29
49341;BME280;35209;51.050;13.678;2023-04-05T22:41:27;100433.59;;;2.40;70.97
49341;BME280;35209;51.050;13.678;2023-04-05T22:46:29;100433.09;;;1.84;71.99
49341;BME280;35209;51.050;13.678;2023-04-05T22:51:31;100440.72;;;1.68;73.00
49341;BME280;35209;51.050;13.678;2023-04-05T22:56:33;100440.56;;;1.56;74.44
49341;BME280;35209;51.050;13.678;2023-04-05T23:01:35;100436.97;;;1.45;75.15
49341;BME280;35209;51.050;13.678;2023-04-05T23:06:37;100445.84;;;1.65;75.85
49341;BME280;35209;51.050;13.678;2023-04-05T23:11:39;100433.47;;;1.40;75.93
49341;BME280;35209;51.050;13.678;2023-04-05T23:16:41;100438.56;;;1.32;76.59
49341;BME280;35209;51.050;13.678;2023-04-05T23:21:42;100433.56;;;1.47;76.66
49341;BME280;35209;51.050;13.678;2023-04-05T23:26:44;100435.97;;;1.32;77.40
49341;BME280;35209;51.050;13.678;2023-04-05T23:31:46;100433.31;;;1.27;77.42
49341;BME280;35209;51.050;13.678;2023-04-05T23:36:53;100438.16;;;0.98;77.29
49341;BME280;35209;51.050;13.678;2023-04-05T23:41:55;100430.38;;;1.00;77.91
49341;BME280;35209;51.050;13.678;2023-04-05T23:46:59;100438.97;;;0.96;78.48
49341;BME280;35209;51.050;13.678;2023-04-05T23:52:01;100436.97;;;0.77;79.68
49341;BME280;35209;51.050;13.678;2023-04-05T23:57:03;100433.59;;;0.81;79.66
